Startpagina
METAR-TAF:

METAR-TAF

Vliegvelden :

Flughafen Lübeck

Lübeck, Duitsland

breedte: 53-49N, lengte: 010-42E, hoogte: 14 m

Actueel weer

Dit bericht is 18 minuten geleden gemaakt, om 18:20 UTC
Wind 6 kt uit het westzuidwesten
Temperatuur 4°C
Vochtigheid 87%
Druk 1022 hPa
Zicht 10 km of meer
Gebroken wolken op 1500 ft

METAR: EDHL 181820Z 24006KT 9999 BKN015 04/02 Q1022

Tijdstip: 19:38 (18:38 UTC)

Verwachting

Dit bericht is 1 uur en het 24 minuten geleden gemaakt, om 17:14 UTC
Verwachting geldig van 18 om 18 UTC tot 18 om 21 UTC
Wind 7 kt uit het westen
Zicht 10 km of meer
Gebroken wolken op 2000 ft
Tijdelijke
van 18 om 18 UTC tot 18 om 21 UTC
Gebroken wolken op 1300 ft

TAF: EDHL 181714Z 1818/1821 26007KT 9999 BKN020 TEMPO 1818/1821 BKN013

Waarnemingen en weersverwachtingen van meer dan 4000 vliegvelden (METAR en TAF).

De beschikbare stations zijn de gele en rode punten op de kaart.

Ga met uw muis naar het station om de naam te zien.

Klik dan om waarnemingen en weersverwachtingen te zien.

kaart wijzigen: klik op de groene knoppen met een zwart kruis om in te zoomen, op de groene knop met een streepje om uit te zoomen of op de groene pijlen voor aangrenzende kaarten.


METAR-TAF: